North Chatham, New York
Current Conditions -  °F | °C
As of 6:54 AM on Wednesday 28 Jan 2015 (Local Time) from KPSF Reporting Station
Overcast Overcast  
Wind Chill: -8°   Ceiling: 6000
Heat Index:   Visibility: 7mi
Dew Point:   Wind: 16mph
Humidity: 73%   Direction: 330°NNW
Pressure: 29.88"   Gusts: 25mph
Location:  42.47°N, 73.63°W
Report Text: KPSF 281154Z AUTO 33014G22KT 7SM FEW027 BKN060 OVC110 M13/M17 A2988 RMK AO2 SLP151 60000 70007 T11281167 11128 21128 51036
Loading
Personal Weather Stations






























Interactive Weather Map New forecast layout! Learn more

10-Day Weather Forecast

Advertisements
Track Severe Weather on mobile